Time;durP1;ratioP1;P1;durP2;ratioP2;P2;SDS_P1;SDS_P2;PMS_P1;PMS_P2;Temp;Humidity;BMP_temperature;BMP_pressure;BME280_temperature;BME280_humidity;BME280_pressure;Samples;Min_cycle;Max_cycle;Signal;HPM_P1;HPM_P2
2023/05/07 00:00:03;;;;;;;22.00;15.23;;;;;;;8.73;76.27;93676.06;513810;28;765;-59
2023/05/07 00:00:19;;;;;;;20.95;15.23;;;;;;;8.63;76.22;93666.78;515132;28;799;-57
2023/05/07 00:00:34;;;;;;;18.05;14.90;;;;;;;8.59;76.67;93676.63;514263;28;1131;-58
2023/05/07 00:00:51;;;;;;;21.27;14.87;;;;;;;8.59;76.68;93665.63;513737;28;1614;-59
2023/05/07 00:01:06;;;;;;;21.42;15.23;;;;;;;8.61;76.97;93680.34;513721;28;922;-58
2023/05/07 00:01:22;;;;;;;18.60;14.67;;;;;;;8.61;76.65;93680.34;515562;28;882;-58
2023/05/07 00:01:37;;;;;;;17.80;14.10;;;;;;;8.66;76.54;93676.00;514737;28;814;-58
2023/05/07 00:01:53;;;;;;;17.33;13.97;;;;;;;8.67;76.47;93672.69;514529;28;1564;-58
2023/05/07 00:02:10;;;;;;;18.30;13.68;;;;;;;8.66;76.36;93674.00;514451;28;1179;-58
2023/05/07 00:02:25;;;;;;;20.98;13.95;;;;;;;8.56;76.56;93672.91;514671;28;1125;-58
2023/05/07 00:02:41;;;;;;;22.33;14.45;;;;;;;8.53;76.61;93668.50;515638;28;1020;-58
2023/05/07 00:02:56;;;;;;;22.07;15.27;;;;;;;8.58;76.61;93675.13;515809;28;818;-58
2023/05/07 00:03:13;;;;;;;20.10;15.07;;;;;;;8.61;76.55;93671.34;515856;28;821;-58
2023/05/07 00:03:28;;;;;;;20.10;14.75;;;;;;;8.64;76.49;93670.28;514428;28;1095;-59
2023/05/07 00:03:44;;;;;;;20.83;14.65;;;;;;;8.67;76.53;93677.47;515567;28;1614;-58
2023/05/07 00:03:59;;;;;;;20.63;14.83;;;;;;;8.69;76.59;93675.66;516002;28;809;-58
2023/05/07 00:04:15;;;;;;;23.10;15.07;;;;;;;8.72;76.19;93673.88;514478;28;1434;-58
2023/05/07 00:04:36;;;;;;;21.88;14.88;;;;;;;8.70;76.12;93671.66;514228;28;884;-58
2023/05/07 00:04:51;;;;;;;18.95;14.95;;;;;;;8.50;76.73;93677.78;515647;28;876;-58
2023/05/07 00:05:08;;;;;;;19.30;14.57;;;;;;;8.34;77.47;93679.59;516093;28;1163;-58
2023/05/07 00:05:23;;;;;;;20.35;14.40;;;;;;;8.18;77.95;93674.38;514869;28;921;-58
2023/05/07 00:05:39;;;;;;;20.00;14.97;;;;;;;8.12;78.59;93676.50;515929;28;1207;-58
2023/05/07 00:05:55;;;;;;;20.42;15.48;;;;;;;8.03;79.00;93676.91;516112;28;930;-58
2023/05/07 00:06:12;;;;;;;20.10;15.15;;;;;;;7.92;79.20;93668.84;516203;28;879;-58
2023/05/07 00:06:29;;;;;;;20.48;15.35;;;;;;;7.86;79.79;93665.44;516310;28;934;-59
2023/05/07 00:06:45;;;;;;;20.00;15.40;;;;;;;7.82;80.27;93679.50;516039;28;1084;-58
2023/05/07 00:07:00;;;;;;;20.67;15.52;;;;;;;7.86;80.36;93670.94;514452;28;1632;-58
2023/05/07 00:07:16;;;;;;;21.90;15.27;;;;;;;7.85;80.71;93683.19;515125;28;880;-58
2023/05/07 00:07:31;;;;;;;22.02;15.05;;;;;;;7.85;80.73;93674.94;516738;28;1170;-59
2023/05/07 00:07:47;;;;;;;21.07;15.57;;;;;;;7.86;81.07;93673.69;515928;28;950;-58
2023/05/07 00:08:03;;;;;;;19.92;15.18;;;;;;;7.90;81.06;93674.13;515955;28;1218;-57
2023/05/07 00:08:19;;;;;;;20.35;15.10;;;;;;;7.96;80.99;93672.75;516321;28;795;-58
2023/05/07 00:08:34;;;;;;;20.90;14.80;;;;;;;8.02;81.04;93680.91;516092;28;807;-56
2023/05/07 00:08:50;;;;;;;19.60;14.17;;;;;;;8.08;80.93;93682.28;515960;28;891;-57
2023/05/07 00:09:06;;;;;;;19.45;14.32;;;;;;;8.14;80.60;93679.44;516004;28;811;-57
2023/05/07 00:09:21;;;;;;;21.77;14.73;;;;;;;8.17;80.39;93675.63;516376;28;1024;-57
2023/05/07 00:09:37;;;;;;;21.37;13.97;;;;;;;8.20;80.10;93678.09;515454;28;1088;-57
2023/05/07 00:09:52;;;;;;;18.60;13.90;;;;;;;8.25;80.24;93676.50;514085;28;1910;-57
2023/05/07 00:10:08;;;;;;;19.77;14.53;;;;;;;8.28;80.17;93670.72;514034;28;793;-57
2023/05/07 00:10:23;;;;;;;21.17;14.98;;;;;;;8.32;79.75;93676.63;516219;28;848;-56
2023/05/07 00:10:40;;;;;;;18.83;14.43;;;;;;;8.37;79.74;93677.78;514359;28;1738;-57
2023/05/07 00:10:56;;;;;;;16.67;13.07;;;;;;;8.40;79.46;93680.22;515945;28;876;-57
2023/05/07 00:11:11;;;;;;;17.95;13.15;;;;;;;8.43;79.11;93672.91;515653;28;1025;-58
2023/05/07 00:11:27;;;;;;;20.03;13.33;;;;;;;8.42;79.25;93671.47;516372;28;916;-58
2023/05/07 00:11:43;;;;;;;20.60;13.80;;;;;;;8.43;79.14;93678.44;514501;28;825;-58
2023/05/07 00:11:58;;;;;;;18.50;14.30;;;;;;;8.46;79.11;93682.88;514193;28;950;-57
2023/05/07 00:12:14;;;;;;;17.27;13.70;;;;;;;8.48;78.92;93676.84;514958;28;778;-57
2023/05/07 00:12:33;;;;;;;17.75;13.13;;;;;;;8.47;78.93;93676.09;516169;28;900;-58
2023/05/07 00:12:49;;;;;;;17.05;13.00;;;;;;;8.48;78.92;93674.84;516126;28;1005;-57
2023/05/07 00:13:04;;;;;;;16.80;13.18;;;;;;;8.44;78.88;93668.16;516143;28;936;-57
2023/05/07 00:13:20;;;;;;;19.13;13.37;;;;;;;8.53;78.63;93676.75;516524;28;816;-56
2023/05/07 00:13:35;;;;;;;22.17;14.05;;;;;;;8.51;78.79;93676.50;516162;28;856;-57
2023/05/07 00:13:51;;;;;;;21.60;14.07;;;;;;;8.56;78.30;93672.91;516142;28;963;-57
2023/05/07 00:14:06;;;;;;;19.15;12.95;;;;;;;8.58;78.44;93678.63;516157;28;1154;-57
2023/05/07 00:14:22;;;;;;;15.83;12.07;;;;;;;8.62;78.37;93679.06;516572;28;793;-57
2023/05/07 00:14:37;;;;;;;13.93;11.65;;;;;;;8.62;78.24;93670.78;516162;28;853;-56
2023/05/07 00:14:53;;;;;;;15.83;12.00;;;;;;;8.55;78.26;93674.22;516107;28;963;-57
2023/05/07 00:15:09;;;;;;;18.38;12.73;;;;;;;8.42;78.33;93679.72;514888;28;1692;-57
2023/05/07 00:15:24;;;;;;;17.10;12.70;;;;;;;8.30;78.89;93676.41;516478;28;918;-57
2023/05/07 00:15:40;;;;;;;17.40;12.63;;;;;;;8.25;79.34;93671.75;516154;28;804;-57
2023/05/07 00:15:55;;;;;;;18.07;12.83;;;;;;;8.27;79.46;93679.50;515937;28;1133;-58
2023/05/07 00:16:10;;;;;;;16.05;12.32;;;;;;;8.30;79.66;93672.91;515891;28;2305;-57
2023/05/07 00:16:26;;;;;;;18.53;12.57;;;;;;;8.33;79.46;93674.63;516201;28;811;-55
2023/05/07 00:16:41;;;;;;;17.52;12.77;;;;;;;8.37;79.43;93672.28;517360;28;1230;-58
2023/05/07 00:16:56;;;;;;;14.67;12.17;;;;;;;8.40;79.61;93682.25;518151;28;865;-58
2023/05/07 00:17:12;;;;;;;15.83;11.60;;;;;;;8.45;79.34;93675.13;518127;28;923;-58
2023/05/07 00:17:29;;;;;;;15.60;10.90;;;;;;;8.46;79.39;93671.13;516243;28;849;-56
2023/05/07 00:17:44;;;;;;;16.35;11.15;;;;;;;8.46;79.38;93671.13;516066;28;945;-57
2023/05/07 00:18:00;;;;;;;16.30;12.15;;;;;;;8.45;79.02;93666.88;515946;28;1711;-56
2023/05/07 00:18:15;;;;;;;13.90;11.73;;;;;;;8.47;79.16;93670.59;516196;28;878;-56
2023/05/07 00:18:31;;;;;;;14.13;11.30;;;;;;;8.50;79.28;93685.31;516091;28;848;-57
2023/05/07 00:18:46;;;;;;;18.38;11.65;;;;;;;8.48;79.18;93672.09;514018;28;908;-57
2023/05/07 00:19:02;;;;;;;20.33;11.60;;;;;;;8.47;79.29;93669.88;514007;28;942;-57
2023/05/07 00:19:17;;;;;;;21.27;11.75;;;;;;;8.44;79.36;93674.41;515153;28;885;-56
2023/05/07 00:19:33;;;;;;;18.07;11.37;;;;;;;8.45;79.24;93670.38;516038;28;785;-57
2023/05/07 00:19:48;;;;;;;16.33;11.10;;;;;;;8.46;79.32;93669.13;515962;28;979;-57
2023/05/07 00:20:04;;;;;;;17.40;11.70;;;;;;;8.46;79.51;93673.88;516170;28;953;-57
2023/05/07 00:20:20;;;;;;;14.38;11.55;;;;;;;8.39;79.21;93669.75;516245;28;895;-56
2023/05/07 00:20:35;;;;;;;14.43;11.23;;;;;;;8.43;79.42;93674.94;516221;28;915;-57
2023/05/07 00:20:51;;;;;;;14.63;11.27;;;;;;;8.45;79.45;93675.88;514752;28;1699;-57
2023/05/07 00:21:06;;;;;;;13.70;10.73;;;;;;;8.44;79.40;93681.94;514185;28;873;-57
2023/05/07 00:21:22;;;;;;;14.27;10.48;;;;;;;8.39;79.33;93665.00;515932;28;873;-57
2023/05/07 00:21:37;;;;;;;14.93;11.07;;;;;;;8.36;79.40;93674.28;516036;28;1166;-56
2023/05/07 00:21:56;;;;;;;14.27;11.02;;;;;;;8.24;79.61;93675.00;516082;28;896;-57
2023/05/07 00:22:11;;;;;;;13.77;10.90;;;;;;;8.13;79.83;93669.72;516203;28;935;-57
2023/05/07 00:22:27;;;;;;;15.02;11.27;;;;;;;8.04;79.86;93667.38;516311;28;965;-58
2023/05/07 00:22:42;;;;;;;14.47;10.90;;;;;;;7.92;80.20;93664.09;516093;28;827;-58
2023/05/07 00:22:57;;;;;;;15.00;11.32;;;;;;;7.87;80.53;93672.41;515090;28;885;-58
2023/05/07 00:23:13;;;;;;;17.50;12.07;;;;;;;7.88;80.76;93673.91;515811;28;877;-56
2023/05/07 00:23:28;;;;;;;18.47;12.30;;;;;;;7.91;81.03;93668.09;514101;28;938;-56
2023/05/07 00:23:44;;;;;;;16.08;11.93;;;;;;;7.97;80.91;93673.50;514803;28;888;-57
2023/05/07 00:23:59;;;;;;;16.23;12.90;;;;;;;8.04;81.10;93675.63;516140;28;841;-58
2023/05/07 00:24:15;;;;;;;20.88;14.82;;;;;;;8.01;80.97;93665.69;516486;28;843;-58
2023/05/07 00:24:30;;;;;;;20.83;14.77;;;;;;;8.09;80.72;93674.78;515554;28;1193;-57
2023/05/07 00:24:45;;;;;;;20.73;15.45;;;;;;;8.14;80.74;93673.94;514077;28;884;-57
2023/05/07 00:25:01;;;;;;;22.53;17.00;;;;;;;8.19;80.54;93678.59;514174;28;836;-56
2023/05/07 00:25:16;;;;;;;23.73;18.13;;;;;;;8.22;80.19;93678.28;515183;28;849;-55
2023/05/07 00:25:32;;;;;;;22.77;17.40;;;;;;;8.26;80.09;93676.00;516069;28;917;-58
2023/05/07 00:25:47;;;;;;;20.90;16.20;;;;;;;8.26;79.55;93678.00;516062;28;1221;-57
2023/05/07 00:26:03;;;;;;;21.02;16.40;;;;;;;8.17;78.97;93668.13;515999;28;1655;-56
2023/05/07 00:26:19;;;;;;;21.30;16.35;;;;;;;8.19;78.72;93670.34;515767;28;916;-57
2023/05/07 00:26:34;;;;;;;21.30;15.30;;;;;;;8.21;78.74;93678.81;516205;28;782;-58
2023/05/07 00:26:50;;;;;;;21.25;14.00;;;;;;;8.22;78.63;93667.28;516019;28;891;-58
2023/05/07 00:27:05;;;;;;;20.30;13.87;;;;;;;8.24;78.26;93673.00;514651;28;1381;-57
2023/05/07 00:27:20;;;;;;;18.15;13.88;;;;;;;8.26;78.18;93675.25;515707;28;865;-57
2023/05/07 00:27:36;;;;;;;17.57;13.43;;;;;;;8.26;78.14;93667.75;516097;28;761;-58
2023/05/07 00:27:51;;;;;;;19.75;14.18;;;;;;;8.26;78.12;93672.50;516152;28;832;-58
2023/05/07 00:28:07;;;;;;;20.03;14.53;;;;;;;8.21;77.94;93676.06;516127;28;809;-57
2023/05/07 00:28:22;;;;;;;19.80;14.10;;;;;;;8.16;78.18;93674.16;516420;28;878;-58
2023/05/07 00:28:38;;;;;;;20.40;14.30;;;;;;;8.14;78.44;93671.91;516054;28;872;-57
2023/05/07 00:28:53;;;;;;;18.87;14.40;;;;;;;8.15;78.46;93672.66;516131;28;906;-57
2023/05/07 00:29:09;;;;;;;17.73;13.88;;;;;;;8.17;78.64;93673.63;516072;28;1028;-57
2023/05/07 00:29:24;;;;;;;15.97;13.40;;;;;;;8.22;78.26;93674.78;516467;28;894;-57
2023/05/07 00:29:39;;;;;;;15.57;13.07;;;;;;;8.24;78.31;93675.75;516035;28;931;-57
2023/05/07 00:29:55;;;;;;;16.23;12.67;;;;;;;8.28;78.24;93678.22;516023;28;1972;-58
2023/05/07 00:30:11;;;;;;;18.53;12.87;;;;;;;8.31;78.21;93677.91;516112;28;850;-55
2023/05/07 00:30:26;;;;;;;19.55;13.32;;;;;;;8.32;77.71;93678.63;516119;28;884;-56
2023/05/07 00:30:42;;;;;;;18.35;13.15;;;;;;;8.22;77.76;93677.56;515248;28;1675;-57
2023/05/07 00:30:57;;;;;;;17.77;13.30;;;;;;;8.14;78.02;93674.66;516124;28;958;-57
2023/05/07 00:31:12;;;;;;;18.20;13.82;;;;;;;8.14;78.39;93673.94;516481;28;817;-57
2023/05/07 00:31:28;;;;;;;17.77;13.50;;;;;;;8.13;78.62;93675.22;516142;28;766;-57
2023/05/07 00:31:43;;;;;;;16.58;13.02;;;;;;;8.16;78.40;93674.91;515326;28;1306;-56
2023/05/07 00:31:59;;;;;;;17.33;13.17;;;;;;;8.19;78.52;93678.59;516106;28;888;-57
2023/05/07 00:32:14;;;;;;;18.40;13.37;;;;;;;8.24;78.17;93675.00;516348;28;1080;-57
2023/05/07 00:32:30;;;;;;;17.60;13.27;;;;;;;8.28;78.20;93676.22;516125;28;817;-56
2023/05/07 00:32:45;;;;;;;16.70;12.43;;;;;;;8.27;77.92;93677.47;516104;28;813;-57
2023/05/07 00:33:02;;;;;;;15.77;11.90;;;;;;;8.28;77.66;93678.97;516085;28;864;-56
2023/05/07 00:33:18;;;;;;;16.60;12.70;;;;;;;8.25;77.78;93671.00;515274;28;929;-57
2023/05/07 00:33:33;;;;;;;17.97;13.87;;;;;;;8.25;77.76;93677.25;514498;28;1769;-57
2023/05/07 00:33:49;;;;;;;18.10;13.27;;;;;;;8.22;77.81;93678.28;514906;28;888;-57
2023/05/07 00:34:04;;;;;;;16.77;12.27;;;;;;;8.15;77.79;93670.66;514233;28;837;-56
2023/05/07 00:34:19;;;;;;;16.90;12.60;;;;;;;8.15;78.13;93672.66;514694;28;841;-57
2023/05/07 00:34:35;;;;;;;16.52;12.30;;;;;;;8.16;77.78;93679.66;514136;28;850;-56
2023/05/07 00:34:50;;;;;;;17.83;12.60;;;;;;;8.17;78.23;93673.63;514115;28;838;-57
2023/05/07 00:35:07;;;;;;;19.30;13.77;;;;;;;8.18;77.93;93675.13;514378;28;1081;-57
2023/05/07 00:35:22;;;;;;;19.05;13.85;;;;;;;8.21;78.01;93673.31;515561;28;1652;-55
2023/05/07 00:35:38;;;;;;;17.75;13.35;;;;;;;8.23;77.90;93679.75;514096;28;814;-56
2023/05/07 00:35:54;;;;;;;16.77;13.07;;;;;;;8.25;78.09;93676.50;514531;28;1688;-57
2023/05/07 00:36:09;;;;;;;16.58;13.18;;;;;;;8.25;77.79;93668.25;516096;28;940;-56
2023/05/07 00:36:26;;;;;;;16.75;13.43;;;;;;;8.30;77.75;93679.16;515828;28;1094;-56
2023/05/07 00:36:41;;;;;;;17.48;13.40;;;;;;;8.31;77.75;93677.91;515074;28;1548;-57
2023/05/07 00:36:56;;;;;;;19.47;13.90;;;;;;;8.33;77.29;93674.63;516098;28;935;-57
2023/05/07 00:37:12;;;;;;;19.30;14.30;;;;;;;8.35;77.38;93674.84;516306;28;892;-57
2023/05/07 00:37:27;;;;;;;19.27;14.20;;;;;;;8.35;77.14;93672.09;516233;28;791;-57
2023/05/07 00:37:43;;;;;;;18.90;13.70;;;;;;;8.28;76.79;93673.47;516066;28;790;-57
2023/05/07 00:37:58;;;;;;;18.00;13.87;;;;;;;8.18;77.03;93675.13;515800;28;829;-56
2023/05/07 00:38:14;;;;;;;17.10;13.77;;;;;;;8.13;77.48;93673.22;515810;28;1164;-57
2023/05/07 00:38:29;;;;;;;17.50;13.73;;;;;;;8.12;77.52;93668.97;516116;28;851;-57
2023/05/07 00:38:45;;;;;;;19.57;14.00;;;;;;;8.13;78.03;93669.72;516032;28;860;-57
2023/05/07 00:39:03;;;;;;;19.27;14.13;;;;;;;8.14;77.35;93673.94;516129;28;829;-56
2023/05/07 00:39:18;;;;;;;18.13;14.38;;;;;;;8.14;77.45;93677.41;516304;28;914;-57
2023/05/07 00:39:34;;;;;;;17.10;13.90;;;;;;;8.15;77.58;93678.16;516028;28;1178;-56
2023/05/07 00:39:50;;;;;;;16.73;13.45;;;;;;;8.15;77.37;93672.66;516082;28;893;-57
2023/05/07 00:40:07;;;;;;;16.27;13.40;;;;;;;8.15;77.12;93680.91;516134;28;1493;-57
2023/05/07 00:40:22;;;;;;;17.90;13.75;;;;;;;8.15;77.33;93675.41;516452;28;878;-57
2023/05/07 00:40:38;;;;;;;18.17;14.05;;;;;;;8.04;77.46;93678.38;514991;28;868;-56
2023/05/07 00:40:53;;;;;;;19.33;14.67;;;;;;;7.86;77.98;93670.94;516081;28;759;-56
2023/05/07 00:41:09;;;;;;;21.10;14.47;;;;;;;7.73;78.44;93666.16;515980;28;1174;-56
2023/05/07 00:41:24;;;;;;;20.45;14.70;;;;;;;7.74;78.57;93675.88;516469;28;797;-56
2023/05/07 00:41:40;;;;;;;19.00;15.43;;;;;;;7.72;78.92;93666.69;516074;28;944;-57
2023/05/07 00:41:55;;;;;;;17.63;15.17;;;;;;;7.78;78.77;93676.31;516154;28;892;-57
2023/05/07 00:42:11;;;;;;;19.07;16.50;;;;;;;7.79;78.74;93686.06;516049;28;949;-57
2023/05/07 00:42:27;;;;;;;23.60;18.92;;;;;;;7.81;78.90;93680.03;516414;28;891;-56
2023/05/07 00:42:46;;;;;;;24.17;18.70;;;;;;;7.80;78.82;93665.53;515366;28;1197;-56
2023/05/07 00:43:02;;;;;;;22.73;18.67;;;;;;;7.90;78.68;93674.88;516181;28;861;-57
2023/05/07 00:43:17;;;;;;;27.60;18.67;;;;;;;7.87;78.39;93664.16;516022;28;852;-57
2023/05/07 00:43:33;;;;;;;38.27;18.23;;;;;;;7.81;78.31;93677.28;514154;28;780;-57
2023/05/07 00:43:48;;;;;;;40.42;18.60;;;;;;;7.59;78.83;93668.13;513959;28;900;-56
2023/05/07 00:44:03;;;;;;;32.37;18.80;;;;;;;7.49;79.31;93672.53;514123;28;867;-56
2023/05/07 00:44:19;;;;;;;25.30;19.65;;;;;;;7.49;79.90;93669.78;515259;28;986;-56
2023/05/07 00:44:34;;;;;;;27.87;19.93;;;;;;;7.49;79.82;93664.28;514102;28;831;-56
2023/05/07 00:44:50;;;;;;;30.67;20.50;;;;;;;7.59;80.03;93672.88;514021;28;966;-56
2023/05/07 00:45:07;;;;;;;30.67;20.95;;;;;;;7.64;80.27;93681.03;514131;28;1621;-57
2023/05/07 00:45:25;;;;;;;30.25;20.85;;;;;;;7.66;80.04;93669.53;515325;28;862;-56
2023/05/07 00:45:40;;;;;;;25.70;20.63;;;;;;;7.72;80.04;93678.41;514879;28;1100;-55
2023/05/07 00:45:56;;;;;;;26.93;21.10;;;;;;;7.73;79.81;93676.41;515768;28;903;-56
2023/05/07 00:46:11;;;;;;;27.90;21.40;;;;;;;7.69;79.83;93665.00;515973;28;963;-57
2023/05/07 00:46:27;;;;;;;24.08;20.45;;;;;;;7.79;79.89;93677.81;516055;28;1149;-57
2023/05/07 00:46:42;;;;;;;23.20;19.57;;;;;;;7.82;79.75;93673.28;515830;28;849;-57
2023/05/07 00:46:58;;;;;;;23.48;18.77;;;;;;;7.85;79.50;93672.94;515953;28;853;-57
2023/05/07 00:47:13;;;;;;;24.47;18.50;;;;;;;7.78;79.59;93661.81;516237;28;1167;-56
2023/05/07 00:47:29;;;;;;;22.92;17.92;;;;;;;7.89;79.50;93672.63;515815;28;821;-56
2023/05/07 00:47:44;;;;;;;22.67;18.13;;;;;;;7.89;79.44;93672.63;515891;28;795;-57
2023/05/07 00:48:01;;;;;;;24.48;18.98;;;;;;;7.83;79.37;93674.75;515943;28;857;-57
2023/05/07 00:48:16;;;;;;;25.48;19.90;;;;;;;7.74;79.42;93672.38;516276;28;1150;-57
2023/05/07 00:48:32;;;;;;;25.30;20.03;;;;;;;7.68;79.94;93669.75;516003;28;811;-57
2023/05/07 00:48:47;;;;;;;25.13;20.60;;;;;;;7.65;80.04;93676.28;513788;28;691;-57
2023/05/07 00:49:03;;;;;;;24.80;20.27;;;;;;;7.62;80.10;93678.06;513932;28;853;-56
2023/05/07 00:49:19;;;;;;;25.27;20.23;;;;;;;7.50;80.45;93659.53;514761;28;846;-58
2023/05/07 00:49:40;;;;;;;26.02;21.02;;;;;;;7.68;80.43;93682.72;513914;28;1780;-55
2023/05/07 00:49:56;;;;;;;30.77;22.48;;;;;;;7.73;80.77;93679.91;511840;29;1915;-56
2023/05/07 00:50:12;;;;;;;27.57;21.47;;;;;;;7.71;80.36;93676.19;511967;28;854;-56
2023/05/07 00:50:28;;;;;;;24.55;20.00;;;;;;;7.79;80.38;93686.06;511873;29;889;-57
2023/05/07 00:50:44;;;;;;;25.00;19.45;;;;;;;7.81;80.45;93678.03;513117;28;893;-57
2023/05/07 00:50:59;;;;;;;23.10;18.48;;;;;;;7.78;80.37;93681.06;513907;28;847;-58
2023/05/07 00:51:15;;;;;;;23.10;18.00;;;;;;;7.78;80.35;93678.31;514279;28;789;-57
2023/05/07 00:51:30;;;;;;;24.17;18.63;;;;;;;7.81;80.31;93671.78;515198;28;793;-58
2023/05/07 00:51:46;;;;;;;22.77;18.63;;;;;;;7.81;80.48;93678.03;515743;28;1178;-58
2023/05/07 00:52:01;;;;;;;21.40;17.70;;;;;;;7.85;80.44;93688.69;513953;28;901;-57
2023/05/07 00:52:17;;;;;;;21.20;17.30;;;;;;;7.89;80.52;93678.13;514272;28;823;-57
2023/05/07 00:52:33;;;;;;;22.55;17.58;;;;;;;7.91;80.17;93675.59;513914;28;858;-57
2023/05/07 00:52:48;;;;;;;20.77;16.38;;;;;;;7.94;80.24;93678.03;512837;28;944;-57
2023/05/07 00:53:04;;;;;;;20.50;16.40;;;;;;;7.87;79.94;93667.66;512026;29;778;-57
2023/05/07 00:53:20;;;;;;;21.15;16.58;;;;;;;7.95;80.03;93681.53;512037;28;1359;-57
2023/05/07 00:53:35;;;;;;;21.67;16.42;;;;;;;7.91;80.15;93686.59;513851;28;897;-58
2023/05/07 00:53:51;;;;;;;20.45;16.45;;;;;;;7.79;80.25;93688.81;512399;28;896;-57
2023/05/07 00:54:07;;;;;;;19.37;16.00;;;;;;;7.72;80.48;93680.41;513951;28;857;-57
2023/05/07 00:54:22;;;;;;;21.08;16.60;;;;;;;7.62;81.00;93683.56;512673;28;916;-57
2023/05/07 00:54:38;;;;;;;21.23;16.60;;;;;;;7.52;81.32;93687.97;513844;28;850;-57
2023/05/07 00:54:54;;;;;;;20.58;16.65;;;;;;;7.44;81.47;93672.63;513877;28;1191;-58
2023/05/07 00:55:10;;;;;;;20.25;16.98;;;;;;;7.49;81.81;93686.25;513943;28;924;-57
2023/05/07 00:55:25;;;;;;;20.27;16.42;;;;;;;7.53;81.79;93683.97;514194;28;898;-55
2023/05/07 00:55:41;;;;;;;20.83;16.90;;;;;;;7.56;81.98;93682.16;512468;28;845;-55
2023/05/07 00:55:56;;;;;;;21.00;17.27;;;;;;;7.26;81.87;93635.69;511691;28;1445;-56
2023/05/07 00:56:12;;;;;;;19.90;16.60;;;;;;;7.64;81.90;93691.28;512365;28;1677;-56
2023/05/07 00:56:27;;;;;;;18.05;15.80;;;;;;;7.64;81.93;93681.03;515923;28;881;-56
2023/05/07 00:56:44;;;;;;;20.43;17.03;;;;;;;7.69;81.99;93684.22;515820;28;813;-57
2023/05/07 00:57:00;;;;;;;20.90;16.75;;;;;;;7.69;81.88;93682.19;515951;28;910;-55
2023/05/07 00:57:15;;;;;;;18.05;15.10;;;;;;;7.69;81.72;93684.94;514073;28;1529;-56
2023/05/07 00:57:35;;;;;;;17.37;14.90;;;;;;;7.73;81.49;93692.91;513379;28;840;-56
2023/05/07 00:57:51;;;;;;;17.27;15.15;;;;;;;7.69;81.53;93689.72;511063;28;1112;-56
2023/05/07 00:58:06;;;;;;;18.00;15.87;;;;;;;7.68;81.72;93690.97;513904;28;825;-56
2023/05/07 00:58:22;;;;;;;20.90;16.57;;;;;;;7.68;81.79;93696.47;512201;28;827;-55
2023/05/07 00:58:37;;;;;;;20.75;16.30;;;;;;;7.68;81.69;93683.47;511909;29;1157;-57
2023/05/07 00:58:53;;;;;;;19.67;15.97;;;;;;;7.62;81.88;93683.56;511811;29;1199;-56
2023/05/07 00:59:08;;;;;;;18.88;15.38;;;;;;;7.61;81.99;93692.34;511973;29;840;-57
2023/05/07 00:59:23;;;;;;;19.30;15.50;;;;;;;7.61;81.89;93697.81;512235;28;787;-56
2023/05/07 00:59:40;;;;;;;20.47;16.53;;;;;;;7.62;81.93;93693.81;510360;29;873;-56
2023/05/07 00:59:55;;;;;;;20.67;16.65;;;;;;;7.64;82.04;93697.50;511770;29;1028;-54
2023/05/07 01:00:12;;;;;;;20.13;16.40;;;;;;;7.54;81.90;93684.69;511983;28;1304;-55
2023/05/07 01:00:27;;;;;;;18.67;16.73;;;;;;;7.54;82.12;93685.44;511879;29;882;-56
2023/05/07 01:00:44;;;;;;;18.13;16.20;;;;;;;7.56;81.96;93695.91;513127;28;838;-57
2023/05/07 01:00:59;;;;;;;19.05;15.55;;;;;;;7.59;82.28;93689.38;515786;28;1663;-56
2023/05/07 01:01:18;;;;;;;18.93;15.50;;;;;;;7.61;82.19;93687.59;516266;28;1629;-57
2023/05/07 01:01:33;;;;;;;18.48;14.65;;;;;;;7.63;82.25;93689.78;515930;28;936;-57
2023/05/07 01:01:48;;;;;;;18.48;14.02;;;;;;;7.67;81.81;93686.75;515944;28;1157;-57
2023/05/07 01:02:04;;;;;;;17.73;14.47;;;;;;;7.69;81.98;93690.44;516023;28;995;-55
2023/05/07 01:02:19;;;;;;;17.25;14.95;;;;;;;7.70;81.94;93696.69;516332;28;983;-57
2023/05/07 01:02:41;;;;;;;18.37;14.87;;;;;;;7.69;81.74;93690.44;516004;28;976;-57
2023/05/07 01:02:57;;;;;;;18.48;14.13;;;;;;;7.72;82.12;93696.91;514082;28;884;-57
2023/05/07 01:03:12;;;;;;;17.33;14.27;;;;;;;7.75;81.57;93698.63;514241;28;1302;-57
2023/05/07 01:03:28;;;;;;;16.90;13.90;;;;;;;7.72;81.54;93685.91;513972;28;858;-57
2023/05/07 01:03:44;;;;;;;15.65;13.38;;;;;;;7.70;81.75;93693.94;514057;28;811;-57
2023/05/07 01:03:59;;;;;;;14.90;13.00;;;;;;;7.72;81.93;93691.41;514002;28;989;-56
2023/05/07 01:04:14;;;;;;;17.17;12.70;;;;;;;7.71;81.73;93692.69;514848;28;884;-57
2023/05/07 01:04:30;;;;;;;18.27;13.50;;;;;;;7.71;81.96;93698.19;516035;28;897;-57
2023/05/07 01:04:45;;;;;;;18.27;15.23;;;;;;;7.73;81.68;93692.91;514813;28;1716;-57
2023/05/07 01:05:02;;;;;;;18.63;15.33;;;;;;;7.75;81.89;93693.13;514046;28;999;-58
2023/05/07 01:05:19;;;;;;;19.85;14.88;;;;;;;7.77;81.70;93691.34;515267;28;870;-57
2023/05/07 01:05:35;;;;;;;20.52;14.95;;;;;;;7.79;81.82;93691.56;515818;28;1163;-57
2023/05/07 01:05:51;;;;;;;17.60;14.18;;;;;;;7.83;81.92;93688.47;515821;28;889;-57
2023/05/07 01:06:07;;;;;;;15.68;13.65;;;;;;;7.83;81.62;93694.72;515793;28;1413;-56
2023/05/07 01:06:24;;;;;;;15.73;14.10;;;;;;;7.86;81.56;93690.19;515939;28;1051;-57
2023/05/07 01:06:40;;;;;;;15.45;13.85;;;;;;;7.88;81.46;93695.91;513768;28;948;-57
2023/05/07 01:06:56;;;;;;;16.77;13.50;;;;;;;7.81;81.36;93697.25;512408;28;884;-55
2023/05/07 01:07:12;;;;;;;16.55;13.20;;;;;;;7.74;81.63;93686.88;512215;28;877;-56
2023/05/07 01:07:28;;;;;;;16.02;13.68;;;;;;;7.77;81.53;93687.84;515270;28;1664;-56
2023/05/07 01:07:44;;;;;;;17.25;14.30;;;;;;;7.76;81.51;93691.84;515683;28;1123;-56
2023/05/07 01:08:00;;;;;;;17.55;14.65;;;;;;;7.76;81.53;93686.34;515935;28;844;-56
2023/05/07 01:08:16;;;;;;;18.83;15.43;;;;;;;7.74;81.58;93684.13;516119;28;1029;-56
2023/05/07 01:08:32;;;;;;;23.52;16.13;;;;;;;7.77;81.49;93694.09;515958;28;853;-56
2023/05/07 01:08:50;;;;;;;23.77;15.18;;;;;;;7.69;81.32;93686.97;515794;28;1059;-55
2023/05/07 01:09:05;;;;;;;18.55;14.23;;;;;;;7.29;81.64;93642.13;514974;28;868;-56
2023/05/07 01:09:21;;;;;;;18.70;14.47;;;;;;;7.50;81.78;93695.25;514365;28;1519;-57
2023/05/07 01:09:37;;;;;;;19.58;15.10;;;;;;;7.30;82.20;93671.81;513793;28;881;-57
2023/05/07 01:09:53;;;;;;;19.10;15.95;;;;;;;7.45;82.39;93690.59;513824;28;1906;-57
2023/05/07 01:10:09;;;;;;;21.50;17.17;;;;;;;7.46;82.48;93690.06;513884;28;880;-57
2023/05/07 01:10:25;;;;;;;21.92;16.63;;;;;;;7.52;82.67;93701.72;516255;28;828;-56
2023/05/07 01:10:42;;;;;;;19.73;15.43;;;;;;;7.56;82.61;93696.66;515696;28;1747;-58
2023/05/07 01:10:58;;;;;;;20.83;16.30;;;;;;;7.59;82.39;93695.59;511956;29;877;-58
2023/05/07 01:11:14;;;;;;;23.42;17.40;;;;;;;7.64;82.29;93696.78;513072;28;810;-57
2023/05/07 01:11:29;;;;;;;23.30;17.50;;;;;;;7.65;82.24;93695.50;511872;29;916;-57
2023/05/07 01:11:44;;;;;;;23.55;16.92;;;;;;;7.68;82.22;93691.72;511832;29;924;-57
2023/05/07 01:12:00;;;;;;;21.83;16.37;;;;;;;7.68;82.01;93697.22;511873;29;1065;-57
2023/05/07 01:12:15;;;;;;;20.70;16.33;;;;;;;7.64;82.19;93696.78;512044;28;1071;-58
2023/05/07 01:12:31;;;;;;;24.27;17.52;;;;;;;7.62;82.30;93694.53;509830;29;2618;-58
2023/05/07 01:12:48;;;;;;;25.15;18.67;;;;;;;7.62;82.25;93689.06;509804;29;774;-57
2023/05/07 01:13:03;;;;;;;25.73;19.15;;;;;;;7.65;82.23;93690.00;510453;29;885;-58
2023/05/07 01:13:19;;;;;;;25.93;18.47;;;;;;;7.69;82.28;93693.19;511622;28;1615;-58
2023/05/07 01:13:35;;;;;;;23.90;17.85;;;;;;;7.72;82.33;93700.41;509896;29;861;-58
2023/05/07 01:13:51;;;;;;;23.17;18.33;;;;;;;7.76;82.19;93692.59;510726;29;1089;-58
2023/05/07 01:14:07;;;;;;;22.13;17.57;;;;;;;7.75;82.06;93690.38;510485;29;1483;-58
2023/05/07 01:14:22;;;;;;;20.63;16.33;;;;;;;7.84;81.97;93698.94;512945;28;969;-58
2023/05/07 01:14:38;;;;;;;22.70;15.87;;;;;;;7.86;81.84;93701.91;511758;29;822;-58
2023/05/07 01:14:53;;;;;;;54.67;18.00;;;;;;;7.68;81.65;93680.72;511913;28;899;-58
2023/05/07 01:15:09;;;;;;;66.25;20.23;;;;;;;7.79;81.55;93701.78;511846;28;876;-58
2023/05/07 01:15:25;;;;;;;37.78;18.88;;;;;;;7.76;81.76;93698.09;513774;28;1060;-58
2023/05/07 01:15:41;;;;;;;27.47;17.27;;;;;;;7.75;81.59;93701.38;513511;28;1031;-58
2023/05/07 01:15:56;;;;;;;21.70;16.95;;;;;;;7.78;81.88;93703.03;511390;28;1204;-58